Time;durP1;ratioP1;P1;durP2;ratioP2;P2;SDS_P1;SDS_P2;PMS_P1;PMS_P2;Temp;Humidity;BMP_temperature;BMP_pressure;BME280_temperature;BME280_humidity;BME280_pressure;Samples;Min_cycle;Max_cycle;Signal;HPM_P1;HPM_P2
2023/06/21 00:01:35;;;;;;;7.55;5.70;;;;;;;17.40;74.96;99482.97;4914498;29;20034;-89
2023/06/21 00:04:01;;;;;;;6.07;4.90;;;;;;;17.41;74.67;99482.66;4912497;29;20054;-89
2023/06/21 00:06:29;;;;;;;6.78;5.18;;;;;;;17.46;75.04;99487.16;4906772;29;20066;-89
2023/06/21 00:08:57;;;;;;;8.77;4.95;;;;;;;17.40;74.50;99475.59;4899065;29;20489;-90
2023/06/21 00:11:23;;;;;;;9.85;4.97;;;;;;;17.33;74.82;99481.47;4926686;29;20039;-89
2023/06/21 00:13:49;;;;;;;6.60;4.60;;;;;;;17.36;74.85;99474.59;4910956;29;20054;-90
2023/06/21 00:16:14;;;;;;;6.90;4.80;;;;;;;17.31;75.33;99480.97;4911433;29;20089;-89
2023/06/21 00:18:40;;;;;;;11.40;4.85;;;;;;;17.30;74.73;99484.00;4911299;29;20035;-89
2023/06/21 00:21:06;;;;;;;10.70;4.65;;;;;;;17.22;74.71;99480.09;4932821;29;20416;-89
2023/06/21 00:23:31;;;;;;;10.80;5.07;;;;;;;17.28;74.70;99489.75;4897713;29;20079;-89
2023/06/21 00:25:57;;;;;;;5.68;4.40;;;;;;;17.23;75.23;99503.50;4888091;29;20072;-89
2023/06/21 00:28:22;;;;;;;11.20;4.75;;;;;;;17.11;75.32;99487.72;4889130;29;20044;-89
2023/06/21 00:30:48;;;;;;;5.97;4.65;;;;;;;17.13;75.21;99487.41;4888961;29;20391;-89
2023/06/21 00:33:13;;;;;;;6.75;4.38;;;;;;;17.15;75.20;99486.00;4889187;29;20392;-89
2023/06/21 00:35:39;;;;;;;9.05;4.68;;;;;;;17.21;75.00;99497.56;4888378;29;20488;-89
2023/06/21 00:38:05;;;;;;;8.60;4.25;;;;;;;17.29;74.17;99480.50;4904715;29;20033;-89
2023/06/21 00:40:31;;;;;;;5.80;4.47;;;;;;;17.48;73.56;99493.88;4889530;29;20040;-90
2023/06/21 00:42:56;;;;;;;6.05;4.07;;;;;;;17.33;74.18;99476.03;4888967;29;20035;-88
2023/06/21 00:45:22;;;;;;;9.40;4.82;;;;;;;17.46;73.33;99477.06;4888561;29;20040;-89
2023/06/21 00:47:49;;;;;;;5.38;4.13;;;;;;;17.56;72.02;99479.53;4888729;29;20084;-89
2023/06/21 00:50:15;;;;;;;7.35;5.57;;;;;;;17.49;73.32;99481.06;4888734;29;20035;-89
2023/06/21 00:52:43;;;;;;;10.82;5.35;;;;;;;17.45;74.04;99480.09;4889616;29;20447;-90
2023/06/21 00:55:08;;;;;;;7.93;4.35;;;;;;;17.36;74.35;99480.84;4888632;29;20095;-89
2023/06/21 00:57:34;;;;;;;9.48;4.53;;;;;;;17.32;74.13;99481.78;4903926;29;20490;-90
2023/06/21 01:00:00;;;;;;;8.35;4.47;;;;;;;17.28;74.49;99478.06;4889288;29;20032;-90
2023/06/21 01:02:25;;;;;;;5.70;4.55;;;;;;;17.36;74.17;99488.22;4888648;29;20107;-87
2023/06/21 01:04:50;;;;;;;5.88;4.38;;;;;;;17.45;73.60;99483.63;4888469;29;20036;-89
2023/06/21 01:07:43;;;;;;;5.72;4.00;;;;;;;17.60;71.87;99485.16;4888349;29;20418;-89
2023/06/21 01:10:27;;;;;;;7.40;5.05;;;;;;;17.58;72.66;99493.63;4904165;29;20036;-89
2023/06/21 01:13:38;;;;;;;8.02;4.32;;;;;;;17.40;73.52;99481.03;4901215;29;20037;-89
2023/06/21 01:16:07;;;;;;;9.48;4.80;;;;;;;17.24;73.82;99472.44;4915806;29;20032;-90
2023/06/21 01:18:32;;;;;;;10.07;4.22;;;;;;;17.23;74.36;99494.53;4872829;29;20570;-90
2023/06/21 01:20:58;;;;;;;7.65;4.85;;;;;;;17.25;74.25;99492.31;4872910;29;20040;-89
2023/06/21 01:23:39;;;;;;;7.50;4.70;;;;;;;17.24;74.29;99485.25;4903821;29;20067;-90
2023/06/21 01:26:30;;;;;;;6.88;4.45;;;;;;;17.14;75.04;99486.28;4903242;29;20044;-89
2023/06/21 01:29:14;;;;;;;10.15;4.85;;;;;;;17.18;74.62;99479.13;4901275;29;20053;-89
2023/06/21 01:31:42;;;;;;;7.90;4.40;;;;;;;17.22;74.62;99493.72;4871331;29;20047;-89
2023/06/21 01:34:08;;;;;;;10.00;5.03;;;;;;;17.12;74.65;99485.78;4869842;29;20033;-89
2023/06/21 01:36:34;;;;;;;13.65;5.43;;;;;;;17.10;74.54;99488.84;4854029;29;20036;-89
2023/06/21 01:39:00;;;;;;;8.18;4.63;;;;;;;17.00;74.90;99482.84;4854567;29;20043;-89
2023/06/21 01:41:26;;;;;;;7.40;5.13;;;;;;;17.05;74.73;99494.41;4854276;29;20518;-89
2023/06/21 01:43:52;;;;;;;8.20;4.85;;;;;;;16.97;75.03;99489.69;4853731;29;20075;-90
2023/06/21 01:46:18;;;;;;;10.88;5.07;;;;;;;16.91;74.91;99486.31;4853806;29;20043;-89
2023/06/21 01:48:43;;;;;;;11.25;4.88;;;;;;;16.90;74.53;99492.03;4853632;29;20422;-89
2023/06/21 01:51:09;;;;;;;6.43;4.38;;;;;;;16.88;75.20;99488.81;4853614;29;20032;-89
2023/06/21 01:53:35;;;;;;;7.78;4.57;;;;;;;16.83;75.56;99503.34;4854432;29;20131;-88
2023/06/21 01:56:02;;;;;;;11.88;5.47;;;;;;;16.84;75.49;99506.88;4854322;29;20051;-89
2023/06/21 01:58:28;;;;;;;5.53;4.63;;;;;;;16.85;75.25;99494.88;4854132;29;20037;-89
2023/06/21 02:00:55;;;;;;;8.15;5.22;;;;;;;16.80;75.45;99495.75;4853683;29;20051;-90
2023/06/21 02:03:21;;;;;;;7.38;4.97;;;;;;;16.77;75.34;99496.38;4853414;29;20052;-89
2023/06/21 02:05:47;;;;;;;8.18;4.43;;;;;;;16.67;75.78;99496.63;4853234;29;20036;-89
2023/06/21 02:08:15;;;;;;;5.22;4.22;;;;;;;16.61;75.66;99501.34;4853218;29;20069;-89
2023/06/21 02:10:42;;;;;;;6.40;4.43;;;;;;;16.62;75.43;99507.59;4853997;29;20048;-89
2023/06/21 02:13:08;;;;;;;6.60;4.75;;;;;;;16.52;75.96;99506.72;4868586;29;20041;-88
2023/06/21 02:15:33;;;;;;;6.32;4.28;;;;;;;16.55;75.81;99505.28;4853929;29;20052;-89
2023/06/21 02:17:59;;;;;;;4.88;4.00;;;;;;;16.39;75.76;99507.50;4853848;29;20036;-89
2023/06/21 02:20:24;;;;;;;6.57;4.93;;;;;;;16.42;75.79;99497.97;4854578;29;20479;-89
2023/06/21 02:22:50;;;;;;;5.07;3.80;;;;;;;16.39;75.51;99501.28;4853164;29;20040;-89
2023/06/21 02:25:16;;;;;;;7.95;4.47;;;;;;;16.41;75.32;99502.59;4853418;29;20041;-89
2023/06/21 02:27:41;;;;;;;8.35;4.57;;;;;;;16.39;75.84;99512.94;4857195;29;20498;-89
2023/06/21 02:30:08;;;;;;;6.85;4.50;;;;;;;16.39;76.08;99510.22;4871723;29;20043;-89
2023/06/21 02:32:34;;;;;;;5.43;4.30;;;;;;;16.37;75.76;99504.28;4871628;29;20132;-89
2023/06/21 02:34:59;;;;;;;6.18;4.30;;;;;;;16.43;75.96;99518.59;4876311;29;20090;-89
2023/06/21 02:37:27;;;;;;;6.35;4.28;;;;;;;16.55;75.41;99516.16;4886625;29;20044;-89
2023/06/21 02:39:54;;;;;;;6.63;4.03;;;;;;;16.64;73.82;99519.75;4903514;29;20416;-89
2023/06/21 02:42:19;;;;;;;6.10;4.35;;;;;;;16.73;73.72;99511.72;4889852;29;20055;-90
2023/06/21 02:44:45;;;;;;;6.88;4.00;;;;;;;16.85;73.51;99513.91;4905264;29;20481;-88
2023/06/21 02:47:10;;;;;;;5.82;3.70;;;;;;;16.95;71.66;99516.41;4905488;29;20039;-89
2023/06/21 02:49:36;;;;;;;4.60;3.75;;;;;;;17.02;70.83;99526.88;4889781;29;20031;-89
2023/06/21 02:52:05;;;;;;;4.78;4.05;;;;;;;17.11;70.14;99530.44;4905818;29;20039;-89
2023/06/21 02:54:32;;;;;;;5.78;4.10;;;;;;;17.02;70.63;99518.72;4889005;29;20047;-89
2023/06/21 02:56:57;;;;;;;6.50;4.20;;;;;;;16.91;72.03;99516.22;4890300;29;20109;-89
2023/06/21 02:59:23;;;;;;;5.05;4.18;;;;;;;17.00;71.75;99524.44;4889339;29;20039;-89
2023/06/21 03:01:48;;;;;;;11.65;4.30;;;;;;;17.01;72.18;99526.03;4890206;29;20035;-89
2023/06/21 03:04:16;;;;;;;6.25;4.43;;;;;;;16.92;72.69;99520.53;4906167;29;20035;-89
2023/06/21 03:06:42;;;;;;;5.80;4.05;;;;;;;17.05;72.05;99521.59;4890185;29;20039;-89
2023/06/21 03:09:07;;;;;;;6.57;3.95;;;;;;;17.14;70.00;99522.50;4906077;29;20042;-89
2023/06/21 03:11:33;;;;;;;7.28;3.88;;;;;;;17.27;68.87;99528.19;4921809;29;20036;-89
2023/06/21 03:13:58;;;;;;;5.97;4.00;;;;;;;17.28;68.56;99533.28;4890240;29;20044;-89
2023/06/21 03:16:24;;;;;;;7.38;3.85;;;;;;;17.30;68.81;99541.16;4889284;29;20044;-90
2023/06/21 03:18:49;;;;;;;5.80;3.85;;;;;;;17.33;68.38;99524.22;4889135;29;20036;-89
2023/06/21 03:21:15;;;;;;;8.38;3.78;;;;;;;17.25;70.26;99525.75;4879089;29;20063;-89
2023/06/21 03:23:40;;;;;;;9.93;4.30;;;;;;;17.26;70.25;99540.97;4880428;29;20040;-89
2023/06/21 03:26:06;;;;;;;10.35;4.38;;;;;;;17.16;70.33;99530.31;4892914;29;20044;-90
2023/06/21 03:28:31;;;;;;;5.97;4.50;;;;;;;17.30;69.57;99533.78;4875171;29;20064;-89
2023/06/21 03:30:57;;;;;;;7.55;3.70;;;;;;;17.42;68.20;99548.78;4852271;29;20048;-89
2023/06/21 03:33:23;;;;;;;9.73;3.70;;;;;;;17.51;68.41;99546.91;4853041;29;20040;-89
2023/06/21 03:35:49;;;;;;;4.82;3.70;;;;;;;17.13;71.65;99537.19;4855847;29;20071;-89
2023/06/21 03:38:14;;;;;;;6.72;3.88;;;;;;;16.94;72.55;99540.06;4884412;29;20128;-89
2023/06/21 03:40:40;;;;;;;7.45;4.05;;;;;;;16.96;71.50;99545.22;4863296;29;20055;-90
2023/06/21 03:43:05;;;;;;;11.27;4.88;;;;;;;16.83;71.54;99541.44;4861547;29;20124;-89
2023/06/21 03:45:31;;;;;;;7.10;4.40;;;;;;;16.86;72.38;99542.72;4876178;29;20040;-89
2023/06/21 03:47:56;;;;;;;5.60;4.22;;;;;;;17.06;71.44;99546.91;4870451;29;20036;-89
2023/06/21 03:50:22;;;;;;;10.82;4.82;;;;;;;16.87;70.63;99537.00;4884063;29;20039;-89
2023/06/21 03:52:48;;;;;;;7.78;3.80;;;;;;;16.97;70.52;99557.69;4871851;29;20422;-89
2023/06/21 03:55:13;;;;;;;5.68;3.63;;;;;;;16.97;69.78;99549.53;4874029;29;20040;-90
2023/06/21 03:57:39;;;;;;;7.05;3.83;;;;;;;17.06;70.22;99544.97;4875618;29;20116;-90
2023/06/21 04:00:11;;;;;;;6.65;3.70;;;;;;;17.16;68.29;99550.19;4875190;29;20036;-89
2023/06/21 04:02:37;;;;;;;4.80;3.80;;;;;;;17.26;68.42;99556.50;4876912;29;20036;-89
2023/06/21 04:05:03;;;;;;;6.38;4.13;;;;;;;17.26;68.25;99545.59;4874480;29;20463;-89
2023/06/21 04:07:30;;;;;;;4.13;3.60;;;;;;;17.43;67.65;99545.75;4875021;29;20463;-89
2023/06/21 04:09:55;;;;;;;6.45;4.82;;;;;;;17.37;68.17;99547.78;4874890;29;20039;-90
2023/06/21 04:12:20;;;;;;;5.00;3.42;;;;;;;17.41;68.36;99541.72;4872031;29;20044;-90
2023/06/21 04:14:46;;;;;;;9.32;4.32;;;;;;;17.48;68.14;99548.34;4879120;29;20036;-89
2023/06/21 04:17:11;;;;;;;6.00;3.75;;;;;;;17.49;67.72;99549.13;4884636;29;20046;-88
2023/06/21 04:19:37;;;;;;;7.72;4.07;;;;;;;17.52;67.85;99541.16;4895144;29;20040;-89
2023/06/21 04:22:03;;;;;;;5.93;4.20;;;;;;;17.59;68.05;99535.28;4873269;29;20043;-89
2023/06/21 04:24:28;;;;;;;7.93;4.57;;;;;;;17.57;68.66;99532.84;4868024;29;20127;-89
2023/06/21 04:26:57;;;;;;;8.23;4.18;;;;;;;17.68;67.67;99540.75;4875871;29;20039;-90
2023/06/21 04:29:23;;;;;;;5.20;3.80;;;;;;;17.78;67.66;99544.06;4903740;29;20107;-90
2023/06/21 04:31:52;;;;;;;6.72;3.65;;;;;;;17.89;66.95;99541.88;4908840;29;20538;-90
2023/06/21 04:34:19;;;;;;;5.20;3.75;;;;;;;17.97;67.47;99556.66;4909261;29;20039;-93
2023/06/21 04:36:47;;;;;;;5.15;3.50;;;;;;;18.07;67.17;99553.66;4913027;29;20134;-92
2023/06/21 04:39:17;;;;;;;8.75;4.32;;;;;;;18.05;65.75;99549.63;4906358;29;20038;-92
2023/06/21 04:41:45;;;;;;;7.95;3.92;;;;;;;18.24;65.10;99539.31;4887270;29;20040;-92
2023/06/21 04:44:11;;;;;;;8.13;4.22;;;;;;;18.28;65.36;99547.63;4910972;29;20040;-92
2023/06/21 04:46:36;;;;;;;7.85;5.07;;;;;;;18.37;65.38;99540.31;4911596;29;20166;-92
2023/06/21 04:49:05;;;;;;;17.60;13.27;;;;;;;18.51;65.08;99557.34;4913533;29;20050;-91
2023/06/21 04:51:33;;;;;;;11.00;5.05;;;;;;;18.62;64.12;99549.69;4894618;29;20038;-91
2023/06/21 04:53:59;;;;;;;9.57;5.05;;;;;;;18.78;64.46;99552.75;4893617;29;20067;-93
2023/06/21 04:56:26;;;;;;;6.75;5.18;;;;;;;18.87;63.77;99555.53;4911147;29;20099;-92
2023/06/21 04:58:52;;;;;;;5.85;3.42;;;;;;;19.06;63.17;99547.03;4925103;29;20043;-90
2023/06/21 05:01:17;;;;;;;8.23;3.80;;;;;;;19.16;63.09;99566.63;4908767;29;20031;-91
2023/06/21 05:03:47;;;;;;;8.57;4.25;;;;;;;19.04;63.58;99541.09;4907887;29;20067;-90
2023/06/21 05:06:13;;;;;;;6.97;4.00;;;;;;;19.22;64.01;99558.28;4897660;29;20039;-90
2023/06/21 05:08:38;;;;;;;6.72;4.13;;;;;;;19.24;62.66;99547.84;4890207;29;20031;-89
2023/06/21 05:11:04;;;;;;;7.28;4.13;;;;;;;19.24;62.71;99558.75;4892545;29;20040;-90
2023/06/21 05:17:32;;;;;;;8.95;4.40;;;;;;;19.47;61.56;99549.25;4854346;29;20108;-89
2023/06/21 05:22:52;;;;;;;8.40;4.20;;;;;;;19.68;61.77;99557.56;4840954;29;20604;-92
2023/06/21 05:25:18;;;;;;;9.07;4.97;;;;;;;19.69;61.95;99558.38;4853458;29;20049;-90
2023/06/21 05:27:49;;;;;;;8.18;4.47;;;;;;;19.79;61.13;99561.56;4854135;29;20052;-89
2023/06/21 05:30:15;;;;;;;12.68;4.88;;;;;;;19.92;60.91;99573.47;4891417;29;20040;-92
2023/06/21 05:36:04;;;;;;;15.70;4.90;;;;;;;19.97;60.87;99543.22;4873885;29;20112;-91
2023/06/21 05:38:31;;;;;;;10.65;5.20;;;;;;;20.24;60.48;99571.25;4872887;29;20093;-92
2023/06/21 05:44:03;;;;;;;9.75;5.35;;;;;;;20.29;59.72;99556.59;4843732;29;20037;-93
2023/06/21 05:46:33;;;;;;;8.63;4.88;;;;;;;20.50;59.32;99560.19;4860895;29;20498;-92
2023/06/21 05:48:59;;;;;;;31.88;16.58;;;;;;;20.56;59.93;99555.31;4904293;29;20040;-89
2023/06/21 05:51:25;;;;;;;14.18;7.32;;;;;;;20.78;59.78;99560.53;4888567;29;20127;-92
2023/06/21 05:53:51;;;;;;;24.48;17.42;;;;;;;20.90;58.97;99556.28;4875778;29;20036;-90
2023/06/21 05:56:16;;;;;;;17.08;8.75;;;;;;;21.00;58.39;99547.69;4894049;29;20040;-92
2023/06/21 05:58:42;;;;;;;19.60;9.68;;;;;;;21.19;58.70;99560.88;4891798;29;20099;-91
2023/06/21 06:01:08;;;;;;;16.40;5.30;;;;;;;21.34;58.62;99560.25;4892766;29;20040;-89
2023/06/21 06:03:36;;;;;;;9.43;4.78;;;;;;;21.39;57.72;99565.56;4896184;29;20070;-91
2023/06/21 06:06:11;;;;;;;8.60;4.20;;;;;;;21.45;58.26;99559.88;4896956;29;20054;-87
2023/06/21 06:08:41;;;;;;;8.65;4.88;;;;;;;21.52;57.81;99554.63;4919998;29;20052;-92
2023/06/21 06:11:16;;;;;;;10.60;5.25;;;;;;;21.63;56.50;99552.31;4893884;29;20504;-91
2023/06/21 06:13:53;;;;;;;9.98;4.82;;;;;;;21.71;57.12;99532.22;4905676;29;20111;-90
2023/06/21 06:16:18;;;;;;;10.60;6.22;;;;;;;21.91;57.37;99536.03;4889337;29;20047;-92
2023/06/21 06:18:44;;;;;;;11.18;5.32;;;;;;;22.09;56.57;99553.06;4893699;29;20094;-91
2023/06/21 06:21:14;;;;;;;10.55;5.07;;;;;;;22.06;55.75;99521.66;4928853;29;20031;-93
2023/06/21 06:23:40;;;;;;;12.93;5.50;;;;;;;22.29;56.06;99534.94;4905328;29;20036;-93
2023/06/21 06:26:10;;;;;;;17.80;5.60;;;;;;;22.31;55.03;99527.97;4893526;29;20493;-91
2023/06/21 06:28:35;;;;;;;11.70;5.28;;;;;;;22.58;55.15;99542.94;4896600;29;20071;-93
2023/06/21 06:31:08;;;;;;;16.13;4.85;;;;;;;22.62;54.88;99534.00;4894715;29;20051;-92
2023/06/21 06:33:34;;;;;;;8.27;4.47;;;;;;;22.71;54.42;99542.91;4916343;29;20043;-93
2023/06/21 06:36:52;;;;;;;12.43;6.45;;;;;;;22.91;54.67;99552.13;4896530;29;20457;-91
2023/06/21 06:40:18;;;;;;;5.13;4.25;;;;;;;22.77;54.46;99523.09;4919249;29;20044;-93
2023/06/21 06:43:11;;;;;;;10.65;6.45;;;;;;;23.05;54.32;99555.31;4849894;29;20080;-91
2023/06/21 06:45:55;;;;;;;25.67;8.05;;;;;;;22.95;54.64;99520.06;4838819;29;20440;-93
2023/06/21 06:48:21;;;;;;;14.90;5.00;;;;;;;23.06;53.60;99526.72;4838141;29;20287;-90
2023/06/21 06:50:46;;;;;;;10.27;5.55;;;;;;;23.16;54.02;99531.72;4818257;29;20049;-92
2023/06/21 06:53:13;;;;;;;8.98;5.43;;;;;;;23.44;53.46;99549.34;4829076;29;20097;-94
2023/06/21 06:55:39;;;;;;;23.20;8.32;;;;;;;23.52;54.38;99537.41;4852227;29;20071;-91
2023/06/21 06:58:04;;;;;;;18.63;5.13;;;;;;;23.57;52.55;99523.41;4859462;29;20109;-92
2023/06/21 07:00:56;;;;;;;10.93;4.47;;;;;;;23.80;51.82;99540.94;4848701;29;20072;-94
2023/06/21 07:03:21;;;;;;;;;;;;;;;23.90;51.36;99544.31;4881154;29;20114;-89
2023/06/21 07:05:50;;;;;;;15.55;10.77;;;;;;;23.85;51.62;99511.59;4861787;29;19915;-92
2023/06/21 07:08:17;;;;;;;37.80;19.02;;;;;;;24.25;51.30;99525.16;4857350;29;20037;-92
2023/06/21 07:10:43;;;;;;;13.73;7.10;;;;;;;24.41;51.27;99530.63;4856774;29;20048;-94
2023/06/21 07:13:08;;;;;;;10.73;7.40;;;;;;;24.48;50.92;99519.00;4870886;29;20109;-92
2023/06/21 07:15:34;;;;;;;17.25;9.43;;;;;;;24.59;50.87;99515.38;4857375;29;20037;-90
2023/06/21 07:18:14;;;;;;;15.60;7.18;;;;;;;24.83;51.99;99535.53;4892921;29;20047;-90
2023/06/21 07:20:43;;;;;;;10.95;5.03;;;;;;;24.84;50.22;99522.56;4894991;29;20047;-91
2023/06/21 07:23:08;;;;;;;7.72;5.18;;;;;;;24.90;50.16;99541.22;4887317;29;20399;-89
2023/06/21 07:25:37;;;;;;;11.10;5.30;;;;;;;24.89;49.60;99519.53;4893766;29;20054;-91
2023/06/21 07:28:03;;;;;;;8.25;4.22;;;;;;;24.97;49.93;99515.78;4898942;29;20076;-90
2023/06/21 07:30:28;;;;;;;9.57;5.13;;;;;;;25.21;49.84;99511.94;4898448;29;20073;-93
2023/06/21 07:32:56;;;;;;;7.53;4.53;;;;;;;25.43;48.77;99517.88;4892586;29;20055;-93
2023/06/21 07:35:23;;;;;;;10.18;4.28;;;;;;;25.49;48.18;99519.97;4897125;29;20040;-93
2023/06/21 07:37:56;;;;;;;12.73;4.50;;;;;;;25.69;48.16;99517.97;4932037;29;20044;-92
2023/06/21 07:40:25;;;;;;;7.63;4.40;;;;;;;25.90;48.33;99509.31;4924056;29;20050;-93
2023/06/21 07:46:40;;;;;;;13.15;5.93;;;;;;;26.38;47.63;99529.00;4950500;29;20046;-96
2023/06/21 07:49:13;;;;;;;11.82;6.30;;;;;;;26.33;47.39;99503.66;4942726;29;20036;-94
2023/06/21 07:51:38;;;;;;;12.65;6.15;;;;;;;26.49;47.56;99506.25;4900968;29;20058;-92
2023/06/21 07:54:04;;;;;;;8.93;4.30;;;;;;;26.54;47.24;99492.13;4899321;29;20142;-92
2023/06/21 07:56:31;;;;;;;12.20;5.68;;;;;;;26.75;46.48;99499.91;4913464;29;20035;-91
2023/06/21 07:59:01;;;;;;;13.30;5.63;;;;;;;26.78;46.21;99491.69;4932577;29;20176;-92
2023/06/21 08:01:26;;;;;;;10.90;4.78;;;;;;;26.97;45.48;99499.03;4902278;29;20035;-93
2023/06/21 08:06:51;;;;;;;10.40;4.43;;;;;;;27.12;44.09;99524.91;4921406;29;20048;-94
2023/06/21 08:09:20;;;;;;;5.15;3.95;;;;;;;27.20;43.96;99520.22;4931041;29;20027;-94
2023/06/21 08:11:48;;;;;;;6.60;4.13;;;;;;;27.23;43.71;99513.16;4899994;29;20134;-96
2023/06/21 08:14:13;;;;;;;8.23;4.40;;;;;;;27.28;43.50;99508.09;4901475;29;20035;-94
2023/06/21 08:16:39;;;;;;;14.32;9.88;;;;;;;27.36;43.13;99520.06;4933995;29;20036;-96
2023/06/21 08:19:05;;;;;;;8.20;4.30;;;;;;;27.42;43.27;99505.50;4898534;29;20047;-95
2023/06/21 08:21:36;;;;;;;12.23;4.38;;;;;;;27.38;43.11;99501.91;4903220;29;20027;-93
2023/06/21 08:24:05;;;;;;;13.48;4.75;;;;;;;27.38;42.64;99506.63;4900660;29;20067;-88
2023/06/21 08:26:30;;;;;;;9.10;6.95;;;;;;;27.48;43.24;99524.53;4897157;29;20051;-92
2023/06/21 08:28:58;;;;;;;6.13;4.35;;;;;;;27.55;43.22;99519.06;4896467;29;20032;-90
2023/06/21 08:31:45;;;;;;;11.50;4.40;;;;;;;27.60;43.14;99518.69;4898332;29;20123;-90
2023/06/21 08:34:11;;;;;;;6.97;4.85;;;;;;;27.67;43.74;99504.97;4912125;29;20044;-94
2023/06/21 08:36:55;;;;;;;5.20;3.78;;;;;;;27.80;42.90;99511.00;4902003;29;20032;-90
2023/06/21 08:39:20;;;;;;;5.90;3.70;;;;;;;27.90;42.66;99509.53;4893866;29;20035;-90
2023/06/21 08:41:46;;;;;;;5.18;3.90;;;;;;;27.89;42.23;99508.75;4900892;29;20521;-93
2023/06/21 08:44:29;;;;;;;6.63;3.97;;;;;;;28.10;41.98;99518.38;4898081;29;20051;-93
2023/06/21 08:46:55;;;;;;;5.75;4.00;;;;;;;28.00;42.36;99526.22;4896852;29;20017;-92
2023/06/21 08:49:20;;;;;;;7.18;4.03;;;;;;;28.07;42.78;99508.09;4892018;29;20142;-93
2023/06/21 08:51:49;;;;;;;8.70;3.50;;;;;;;28.00;41.73;99495.78;4877507;29;20055;-93
2023/06/21 08:57:23;;;;;;;5.43;3.85;;;;;;;28.49;41.94;99512.34;5028995;23;20063;-93
2023/06/21 09:00:17;;;;;;;11.70;4.53;;;;;;;28.55;41.80;99499.75;4933495;28;20054;-94
2023/06/21 09:03:08;;;;;;;;;;;;;;;;;;;;;
2023/06/21 09:06:08;;;;;;;6.40;4.25;;;;;;;28.88;41.12;99506.25;4967225;28;20062;-95
2023/06/21 09:08:41;;;;;;;7.28;3.47;;;;;;;28.68;40.89;99481.63;4985074;28;20042;-93
2023/06/21 09:11:18;;;;;;;19.70;13.43;;;;;;;28.67;40.66;99477.25;4941988;28;20125;-95
2023/06/21 09:13:54;;;;;;;11.95;7.93;;;;;;;28.74;40.26;99485.59;4939676;28;20070;-94
2023/06/21 09:16:36;;;;;;;7.20;4.10;;;;;;;28.71;40.03;99478.06;4957797;28;20070;-95
2023/06/21 09:19:02;;;;;;;7.97;3.58;;;;;;;28.79;38.94;99482.44;4952236;28;20046;-94
2023/06/21 09:21:27;;;;;;;4.60;3.63;;;;;;;28.88;39.58;99478.53;4933532;28;20109;-95
2023/06/21 09:23:53;;;;;;;7.30;4.13;;;;;;;28.62;39.77;99477.63;4933556;28;20042;-92
2023/06/21 09:26:24;;;;;;;4.97;3.55;;;;;;;28.75;39.59;99481.63;4937120;28;20045;-94
2023/06/21 09:28:56;;;;;;;5.85;4.10;;;;;;;28.78;39.54;99494.72;4936529;28;20049;-93
2023/06/21 09:31:21;;;;;;;5.90;3.72;;;;;;;28.86;40.35;99497.53;4933628;28;20039;-91
2023/06/21 09:33:47;;;;;;;8.07;3.78;;;;;;;28.78;39.63;99480.88;4932170;28;20045;-93
2023/06/21 09:36:14;;;;;;;4.70;3.58;;;;;;;28.88;38.82;99484.06;4935842;28;20038;-91
2023/06/21 09:38:43;;;;;;;5.00;3.50;;;;;;;28.91;39.33;99473.00;4932262;28;20062;-92
2023/06/21 09:41:08;;;;;;;6.35;3.80;;;;;;;29.02;38.72;99496.00;4934346;28;20046;-90
2023/06/21 09:43:34;;;;;;;3.83;3.10;;;;;;;29.02;36.71;99489.66;4932170;28;20077;-90
2023/06/21 09:46:08;;;;;;;5.22;3.65;;;;;;;28.86;36.12;99503.84;4932494;28;20077;-94
2023/06/21 09:48:43;;;;;;;5.03;3.40;;;;;;;28.71;35.76;99480.03;4943172;28;20062;-89
2023/06/21 09:51:20;;;;;;;3.25;2.95;;;;;;;28.73;37.36;99472.91;4926859;29;20043;-90
2023/06/21 09:53:59;;;;;;;3.75;3.03;;;;;;;28.96;36.20;99489.25;4939174;28;20054;-94
2023/06/21 09:56:24;;;;;;;4.45;3.30;;;;;;;28.92;34.02;99477.34;4957931;28;20146;-91
2023/06/21 09:58:52;;;;;;;5.72;3.25;;;;;;;28.97;33.79;99482.53;4935074;28;20066;-95
2023/06/21 10:01:24;;;;;;;5.95;3.38;;;;;;;29.09;35.59;99486.13;4935472;28;20026;-91
2023/06/21 10:03:49;;;;;;;5.53;3.45;;;;;;;29.13;35.22;99476.66;4938268;28;20039;-89
2023/06/21 10:06:18;;;;;;;4.40;3.65;;;;;;;29.25;37.61;99474.72;4938392;28;20045;-92
2023/06/21 10:08:55;;;;;;;5.30;3.38;;;;;;;29.38;37.12;99468.38;4936893;28;20039;-91
2023/06/21 10:11:24;;;;;;;6.20;3.60;;;;;;;29.39;36.28;99461.66;4950782;28;20211;-92
2023/06/21 10:21:36;;;;;;;4.68;3.70;;;;;;;29.77;38.02;99486.31;4928624;29;20074;-96
2023/06/21 10:24:03;;;;;;;7.20;4.35;;;;;;;29.68;38.44;99456.16;4914708;29;20047;-95
2023/06/21 10:27:05;;;;;;;5.25;3.75;;;;;;;29.85;38.23;99487.91;4934620;29;20102;-94
2023/06/21 10:29:37;;;;;;;5.38;3.50;;;;;;;29.93;37.80;99485.94;4945466;29;20063;-92
2023/06/21 10:32:12;;;;;;;5.85;4.55;;;;;;;30.03;37.68;99476.81;4941823;29;20043;-95
2023/06/21 10:35:08;;;;;;;7.90;4.03;;;;;;;30.22;37.87;99483.91;4924431;29;20051;-95
2023/06/21 10:37:50;;;;;;;;;;;;;;;;;;;;;
2023/06/21 10:40:19;;;;;;;5.75;4.60;;;;;;;29.94;37.00;99474.41;4977966;28;20066;-95
2023/06/21 10:42:46;;;;;;;7.78;5.43;;;;;;;30.02;37.10;99481.53;4956153;28;20042;-93
2023/06/21 10:45:57;;;;;;;7.50;5.53;;;;;;;29.91;36.77;99453.00;4955277;28;20038;-95
2023/06/21 10:48:24;;;;;;;;;;;;;;;30.06;36.85;99478.00;4959448;28;20034;-95
2023/06/21 10:50:54;;;;;;;5.30;3.78;;;;;;;29.87;37.21;99466.09;4956127;28;19932;-96
2023/06/21 10:53:23;;;;;;;5.70;4.15;;;;;;;29.68;36.53;99458.16;4955095;28;20062;-92
2023/06/21 10:59:09;;;;;;;5.72;3.45;;;;;;;29.93;35.86;99483.16;5298966;23;20078;-96
2023/06/21 11:04:53;;;;;;;5.18;3.78;;;;;;;30.07;35.36;99474.81;5130904;23;20059;-94
2023/06/21 11:10:49;;;;;;;6.07;4.85;;;;;;;30.20;33.89;99464.09;4942951;29;20046;-96
2023/06/21 11:13:44;;;;;;;10.68;4.28;;;;;;;30.56;34.34;99477.91;4941378;29;20084;-96
2023/06/21 11:16:19;;;;;;;6.18;3.90;;;;;;;30.59;33.89;99479.91;4944747;29;20035;-95
2023/06/21 11:19:10;;;;;;;;;;;;;;;;;;;;;
2023/06/21 11:21:49;;;;;;;9.05;7.43;;;;;;;30.74;33.68;99458.41;4943474;29;20118;-94
2023/06/21 11:24:21;;;;;;;6.78;4.47;;;;;;;30.93;33.59;99443.25;4931183;28;20030;-96
2023/06/21 11:27:06;;;;;;;9.80;4.35;;;;;;;30.83;33.87;99444.84;4906110;29;20125;-96
2023/06/21 11:29:36;;;;;;;5.70;3.60;;;;;;;31.08;33.78;99472.56;4923029;29;20072;-95
2023/06/21 11:32:24;;;;;;;4.35;3.25;;;;;;;31.04;33.05;99473.78;4918336;29;20067;-96
2023/06/21 11:34:53;;;;;;;7.28;3.78;;;;;;;31.04;33.90;99463.44;4916474;29;20195;-96
2023/06/21 11:38:17;;;;;;;5.47;3.40;;;;;;;31.08;33.09;99469.00;4922894;29;20043;-96
2023/06/21 11:44:52;;;;;;;4.70;3.08;;;;;;;31.08;32.75;99477.34;4872199;29;20125;-92
2023/06/21 11:48:01;;;;;;;4.57;3.60;;;;;;;30.86;32.75;99471.84;4910417;29;20032;-94
2023/06/21 11:50:50;;;;;;;5.72;3.25;;;;;;;30.77;32.93;99436.13;4900187;29;20099;-96
2023/06/21 11:56:16;;;;;;;8.63;4.30;;;;;;;30.74;33.97;99430.59;4886719;29;20067;-95
2023/06/21 11:58:42;;;;;;;6.28;4.15;;;;;;;30.62;34.32;99440.19;4876725;29;20037;-93
2023/06/21 12:01:08;;;;;;;4.20;3.70;;;;;;;30.42;35.25;99445.41;4880182;29;20037;-94
2023/06/21 12:03:33;;;;;;;6.38;4.10;;;;;;;30.42;35.73;99459.28;4896654;29;20052;-91
2023/06/21 12:06:03;;;;;;;6.05;3.90;;;;;;;30.35;34.69;99443.44;4903092;29;20043;-92
2023/06/21 12:08:35;;;;;;;6.53;4.10;;;;;;;30.21;35.77;99446.22;4893510;29;20032;-91
2023/06/21 12:11:05;;;;;;;8.25;4.60;;;;;;;30.06;36.63;99430.78;4918091;29;20034;-93
2023/06/21 12:13:32;;;;;;;7.05;3.90;;;;;;;30.07;37.90;99454.56;4916462;29;20035;-92
2023/06/21 12:17:44;;;;;;;5.90;4.00;;;;;;;29.99;38.09;99424.03;4920941;29;20039;-94
2023/06/21 12:23:15;;;;;;;6.00;4.05;;;;;;;30.29;37.05;99441.44;4824460;29;20046;-90
2023/06/21 12:25:55;;;;;;;5.90;3.85;;;;;;;30.22;36.32;99414.47;4831334;29;20164;-90
2023/06/21 12:28:24;;;;;;;4.50;3.67;;;;;;;30.44;35.59;99426.34;4863835;29;20036;-91
2023/06/21 12:30:49;;;;;;;4.30;3.42;;;;;;;30.59;36.08;99447.34;4873652;29;20044;-90
2023/06/21 12:33:26;;;;;;;6.15;4.20;;;;;;;30.51;35.01;99431.09;4917009;28;20114;-90
2023/06/21 12:35:54;;;;;;;4.57;3.75;;;;;;;30.54;34.42;99435.84;4933560;29;20047;-90
2023/06/21 12:39:06;;;;;;;3.65;3.22;;;;;;;30.43;33.65;99402.53;4937985;29;20027;-91
2023/06/21 12:42:30;;;;;;;6.10;3.80;;;;;;;30.69;33.80;99423.44;4948803;29;20078;-92
2023/06/21 12:45:12;;;;;;;5.20;3.75;;;;;;;30.65;33.93;99408.00;4915636;29;20059;-90